| time (UTC) | temp C | wind direction | speed KPH | gust KPH | rain 1hr cm | rain 24hr cm | rain mn cm | humidity % | barometer mb |
| 20260506021633 | 20 | 280 | 1.6 | 8.0 | 0.00 | 0.38 | 0.38 | 63 | |
| 20260506011633 | 23 | 287 | 1.6 | 3.2 | 0.00 | 0.38 | 0.38 | 59 | |
| 20260506001633 | 25 | 235 | 3.2 | 16.1 | 0.00 | 0.38 | 0.38 | 54 | |
| 20260505231628 | 26 | 187 | 0.0 | 3.2 | 0.00 | 0.38 | 0.38 | 55 | |
| 20260505221625 | 25 | 161 | 0.0 | 12.9 | 0.00 | 0.38 | 0.38 | 56 | |
| 20260505211621 | 25 | 286 | 12.9 | 20.9 | 0.00 | 0.38 | 0.38 | 61 | |
| 20260505201619 | 25 | 244 | 0.0 | 12.9 | 0.00 | 0.38 | 0.38 | 70 | |
| 20260505191615 | 25 | 12 | 0.0 | 16.1 | 0.00 | 0.38 | 0.38 | 82 | |
| 20260505181614 | 21 | 256 | 0.0 | 0.0 | 0.00 | 0.38 | 0.38 | 96 | |
| 20260505171614 | 21 | 26 | 0.0 | 0.0 | 0.00 | 0.38 | 0.38 | 99 | |
| 20260505161611 | 17 | 2 | 0.0 | 0.0 | 0.00 | 0.38 | 0.38 | 2 | |
| 20260505151611 | 15 | 89 | 0.0 | 0.0 | 0.00 | 0.38 | 0.38 | 38 | |
| 20260505121610 | 14 | 88 | 0.0 | 0.0 | 0.00 | 0.38 | 0.38 | 52 | |
| 20260505111607 | 13 | 88 | 0.0 | 0.0 | 0.00 | 0.36 | 0.36 | 51 | |
| 20260505101606 | 14 | 86 | 0.0 | 0.0 | 0.18 | 0.33 | 0.33 | 49 | |
| 20260505091601 | 14 | 113 | 0.0 | 0.0 | 0.00 | 0.23 | 0.23 | 48 | |
| 20260505081558 | 14 | 112 | 0.0 | 0.0 | 0.00 | 0.18 | 0.18 | 48 | |
| 20260505071559 | 14 | 105 | 0.0 | 0.0 | 0.18 | 0.03 | 0.03 | 46 | |
| 20260505061557 | 15 | 105 | 0.0 | 0.0 | 0.18 | 0.53 | 0.53 | 42 | |
| 20260505051556 | 15 | 114 | 0.0 | 0.0 | 0.00 | 0.43 | 0.43 | 36 | |
| 20260505041555 | 13 | 107 | 0.0 | 0.0 | 0.00 | 0.38 | 0.38 | 27 | |
| 20260505031554 | 13 | 88 | 0.0 | 12.9 | 0.00 | 0.38 | 0.38 | 18 |